Time;durP1;ratioP1;P1;durP2;ratioP2;P2;SDS_P1;SDS_P2;PMS_P1;PMS_P2;Temp;Humidity;BMP_temperature;BMP_pressure;BME280_temperature;BME280_humidity;BME280_pressure;Samples;Min_cycle;Max_cycle;Signal;HPM_P1;HPM_P2
2023/09/30 00:04:07;;;;;;;1.67;1.27;;;;;;;22.75;68.88;100952.50;10334053;28;96797;-80
2023/09/30 00:09:11;;;;;;;2.25;1.58;;;;;;;22.90;68.32;100951.34;10332168;28;96663;-79
2023/09/30 00:14:15;;;;;;;1.50;1.30;;;;;;;22.59;69.95;100949.34;10332252;28;96687;-80
2023/09/30 00:19:19;;;;;;;1.50;1.08;;;;;;;22.87;67.84;100958.78;10333540;28;96921;-79
2023/09/30 00:24:22;;;;;;;2.22;1.38;;;;;;;22.81;67.81;100951.19;10332525;28;98210;-79
2023/09/30 00:29:26;;;;;;;1.70;1.30;;;;;;;22.63;68.94;100958.84;10332378;28;96868;-79
2023/09/30 00:34:33;;;;;;;2.77;1.50;;;;;;;22.40;70.70;100955.25;10332907;28;96781;-79
2023/09/30 00:39:37;;;;;;;2.13;1.48;;;;;;;22.31;70.44;100955.13;10332105;28;96969;-79
2023/09/30 00:44:42;;;;;;;1.83;1.23;;;;;;;22.66;68.29;100947.88;10332757;28;97137;-79
2023/09/30 00:49:47;;;;;;;1.30;1.10;;;;;;;22.96;66.68;100955.34;10332042;28;97146;-79
2023/09/30 00:54:53;;;;;;;1.50;1.00;;;;;;;23.13;65.88;100954.88;10324433;28;97218;-79
2023/09/30 00:59:56;;;;;;;1.75;1.17;;;;;;;23.07;66.13;100950.00;10288942;28;97458;-79
2023/09/30 01:05:01;;;;;;;2.05;1.25;;;;;;;22.54;68.71;100949.69;10290296;28;96687;-79
2023/09/30 01:10:05;;;;;;;1.83;1.40;;;;;;;22.37;69.36;100954.63;10311292;28;96818;-79
2023/09/30 01:15:10;;;;;;;1.63;1.00;;;;;;;22.16;70.51;100951.78;10331128;28;96675;-79
2023/09/30 01:20:16;;;;;;;1.83;1.10;;;;;;;22.44;68.80;100954.06;10331051;28;97457;-79
2023/09/30 01:25:21;;;;;;;1.55;1.30;;;;;;;22.43;68.32;100957.72;10330872;28;96615;-80
2023/09/30 01:30:25;;;;;;;2.60;1.20;;;;;;;22.34;68.82;100955.75;10329435;28;96804;-79
2023/09/30 01:35:28;;;;;;;1.52;1.20;;;;;;;22.52;67.61;100946.25;10331281;28;98321;-79
2023/09/30 01:40:35;;;;;;;1.75;1.33;;;;;;;22.33;68.54;100945.13;10315353;28;96894;-79
2023/09/30 01:45:38;;;;;;;2.25;1.30;;;;;;;22.26;68.83;100944.72;10323541;28;97221;-79
2023/09/30 01:50:42;;;;;;;1.60;1.13;;;;;;;22.33;67.87;100937.94;10328347;28;96813;-80
2023/09/30 01:55:47;;;;;;;3.53;1.10;;;;;;;22.38;67.64;100946.50;10329385;28;96821;-79
2023/09/30 02:00:51;;;;;;;1.40;1.10;;;;;;;22.33;67.85;100945.13;10329403;28;96672;-79
2023/09/30 02:05:57;;;;;;;1.83;0.98;;;;;;;22.12;68.59;100946.78;10329651;28;96909;-78
2023/09/30 02:11:05;;;;;;;1.58;1.08;;;;;;;22.17;68.06;100937.41;10328922;28;96594;-79
2023/09/30 02:16:13;;;;;;;2.33;1.42;;;;;;;22.10;68.51;100941.53;10329574;28;97027;-79
2023/09/30 02:21:16;;;;;;;1.52;1.05;;;;;;;22.09;68.81;100944.34;10328736;28;97217;-80
2023/09/30 02:26:21;;;;;;;2.90;1.25;;;;;;;22.26;67.65;100934.00;10329429;28;96591;-79
2023/09/30 02:31:24;;;;;;;1.73;1.20;;;;;;;22.37;66.85;100938.53;10296740;28;97564;-79
2023/09/30 02:36:28;;;;;;;2.03;1.20;;;;;;;22.31;66.97;100937.22;10319717;28;96662;-79
2023/09/30 02:41:32;;;;;;;2.10;1.05;;;;;;;22.28;67.40;100934.75;10333476;28;97313;-79
2023/09/30 02:46:37;;;;;;;2.28;1.02;;;;;;;22.20;67.49;100922.91;10334963;28;96864;-79
2023/09/30 02:51:40;;;;;;;1.80;1.02;;;;;;;22.27;67.16;100929.50;10335815;28;97035;-79
2023/09/30 02:56:46;;;;;;;1.95;1.25;;;;;;;22.40;66.76;100928.44;10334828;28;96757;-79
2023/09/30 03:01:49;;;;;;;1.35;0.80;;;;;;;22.26;67.03;100939.38;10334206;28;96666;-79
2023/09/30 03:06:56;;;;;;;1.13;1.03;;;;;;;22.22;66.96;100937.91;10336261;28;97006;-79
2023/09/30 03:12:02;;;;;;;1.73;1.10;;;;;;;22.09;67.67;100928.25;10375857;28;96560;-79
2023/09/30 03:17:11;;;;;;;1.55;1.00;;;;;;;22.09;67.47;100931.78;10376759;28;96888;-79
2023/09/30 03:22:15;;;;;;;1.88;1.38;;;;;;;21.98;67.88;100933.53;10375482;28;96792;-79
2023/09/30 03:27:21;;;;;;;2.30;1.25;;;;;;;22.14;66.89;100934.94;10374704;28;97101;-79
2023/09/30 03:32:27;;;;;;;1.55;1.13;;;;;;;22.29;65.95;100931.13;10374073;28;96814;-78
2023/09/30 03:37:32;;;;;;;1.35;1.05;;;;;;;22.31;65.91;100934.53;10375563;28;96996;-79
2023/09/30 03:42:38;;;;;;;1.55;1.20;;;;;;;22.24;66.23;100930.63;10342815;28;96999;-78
2023/09/30 03:47:44;;;;;;;0.88;0.85;;;;;;;22.19;66.33;100922.06;10333266;28;96804;-78
2023/09/30 03:52:49;;;;;;;1.15;1.05;;;;;;;22.22;66.04;100926.31;10332432;28;97126;-79
2023/09/30 03:57:56;;;;;;;2.05;1.30;;;;;;;22.05;66.29;100927.63;10333153;28;96789;-78
2023/09/30 04:03:05;;;;;;;2.10;1.60;;;;;;;22.10;65.92;100922.78;10332926;28;96592;-79
2023/09/30 04:08:08;;;;;;;1.60;1.13;;;;;;;22.16;65.84;100927.66;10333573;28;96658;-79
2023/09/30 04:13:13;;;;;;;1.65;1.27;;;;;;;22.20;65.15;100918.41;10332674;28;97306;-79
2023/09/30 04:18:20;;;;;;;1.45;1.10;;;;;;;22.19;65.21;100930.13;10332937;28;96997;-79
2023/09/30 04:23:27;;;;;;;2.08;1.10;;;;;;;22.17;65.32;100912.44;10331487;28;96784;-79
2023/09/30 04:28:34;;;;;;;2.17;1.20;;;;;;;22.21;65.14;100912.06;10331838;28;96612;-79
2023/09/30 04:33:37;;;;;;;1.83;0.90;;;;;;;22.26;65.03;100914.41;10332659;28;96668;-79
2023/09/30 04:38:41;;;;;;;1.83;1.00;;;;;;;22.19;65.32;100918.53;10331331;28;96783;-79
2023/09/30 04:43:47;;;;;;;1.87;1.10;;;;;;;22.20;64.94;100917.53;10331840;28;97460;-79
2023/09/30 04:48:52;;;;;;;1.40;1.00;;;;;;;22.23;64.72;100920.00;10332834;28;96662;-79
2023/09/30 04:53:56;;;;;;;1.58;0.98;;;;;;;22.23;64.64;100917.34;10372447;28;96685;-79
2023/09/30 04:59:02;;;;;;;2.28;1.13;;;;;;;22.11;65.28;100934.31;10372679;28;96889;-79
2023/09/30 05:04:05;;;;;;;2.78;1.42;;;;;;;22.15;64.99;100922.41;10372163;28;96820;-79
2023/09/30 05:09:09;;;;;;;2.07;1.47;;;;;;;22.13;64.87;100941.28;10371155;28;97284;-79
2023/09/30 05:14:14;;;;;;;;;;;;;;;22.14;64.85;100934.94;10371492;28;96642;-79
2023/09/30 05:19:17;;;;;;;3.40;1.20;;;;;;;22.11;64.95;100940.56;10372040;28;97133;-79
2023/09/30 05:24:20;;;;;;;1.50;1.13;;;;;;;22.09;65.09;100939.81;10370776;28;96818;-79
2023/09/30 05:29:25;;;;;;;0.80;0.80;;;;;;;22.10;64.61;100938.84;10345602;28;96848;-79
2023/09/30 05:34:29;;;;;;;1.27;0.90;;;;;;;22.16;64.89;100938.38;10289175;28;97520;-79
2023/09/30 05:39:32;;;;;;;1.00;0.90;;;;;;;22.11;64.58;100945.06;10295583;28;97457;-79
2023/09/30 05:44:37;;;;;;;1.13;1.00;;;;;;;22.06;65.09;100940.06;10370241;28;96753;-79
2023/09/30 05:49:41;;;;;;;1.60;1.17;;;;;;;22.07;65.17;100944.44;10371817;28;97227;-79
2023/09/30 05:54:44;;;;;;;1.85;1.10;;;;;;;22.11;64.88;100943.22;10370894;28;96755;-79
2023/09/30 05:59:49;;;;;;;1.20;1.00;;;;;;;22.11;64.74;100948.59;10369284;28;96968;-79
2023/09/30 06:04:53;;;;;;;2.63;0.82;;;;;;;22.12;64.67;100953.00;10369588;28;96862;-79
2023/09/30 06:09:56;;;;;;;1.38;1.02;;;;;;;22.07;64.55;100951.63;10370694;28;96622;-79
2023/09/30 06:15:02;;;;;;;1.35;0.75;;;;;;;22.00;64.91;100956.63;10373534;28;96626;-79
2023/09/30 06:20:09;;;;;;;0.85;0.85;;;;;;;22.00;65.00;100958.44;10377570;28;97364;-79
2023/09/30 06:25:16;;;;;;;1.45;1.00;;;;;;;21.92;65.08;100968.81;10376792;28;96656;-79
2023/09/30 06:30:29;;;;;;;1.05;0.95;;;;;;;21.89;65.03;100964.56;10372316;28;96916;-79
2023/09/30 06:35:38;;;;;;;1.80;1.10;;;;;;;21.86;65.09;100958.56;10376038;28;96825;-79
2023/09/30 06:40:43;;;;;;;1.42;1.10;;;;;;;21.85;65.08;100967.59;10360814;28;96689;-79
2023/09/30 06:45:48;;;;;;;1.03;0.80;;;;;;;21.85;65.06;100970.28;10335487;28;97223;-79
2023/09/30 06:50:52;;;;;;;1.05;0.88;;;;;;;21.85;65.21;100976.47;10362369;28;97172;-79
2023/09/30 06:55:56;;;;;;;1.13;0.80;;;;;;;21.86;65.11;100972.84;10375259;28;97290;-79
2023/09/30 07:01:01;;;;;;;1.40;0.77;;;;;;;21.87;64.99;100979.91;10375203;28;98571;-79
2023/09/30 07:06:05;;;;;;;1.23;0.85;;;;;;;21.92;64.88;100988.44;10375080;28;96956;-79
2023/09/30 07:11:12;;;;;;;2.15;1.10;;;;;;;21.96;64.85;100984.56;10376155;28;96595;-79
2023/09/30 07:16:17;;;;;;;1.52;0.88;;;;;;;22.15;64.20;100989.44;10375817;28;97038;-79
2023/09/30 07:21:20;;;;;;;0.60;0.60;;;;;;;23.46;60.87;101004.03;10375729;28;97118;-79
2023/09/30 07:26:25;;;;;;;1.77;1.00;;;;;;;24.40;57.93;101004.25;10374290;28;96808;-80
2023/09/30 07:31:39;;;;;;;1.90;0.95;;;;;;;25.31;56.02;100995.31;10304117;22;97298;-80
2023/09/30 07:36:44;;;;;;;3.05;0.70;;;;;;;26.10;54.09;101010.56;10265303;28;96905;-80
2023/09/30 07:41:47;;;;;;;1.15;0.77;;;;;;;26.39;51.63;101006.03;10256637;28;96732;-80
2023/09/30 07:46:52;;;;;;;1.57;0.97;;;;;;;27.03;51.46;101014.31;10281052;28;97534;-80
2023/09/30 07:51:55;;;;;;;1.30;0.90;;;;;;;27.57;49.84;101016.22;10252304;28;96702;-80
2023/09/30 07:56:59;;;;;;;1.10;0.90;;;;;;;27.67;49.29;101020.63;10262076;28;96690;-80
2023/09/30 08:02:04;;;;;;;0.95;0.80;;;;;;;28.02;47.22;101017.97;10291413;28;96932;-80
2023/09/30 08:07:09;;;;;;;1.38;0.85;;;;;;;28.79;46.77;101018.16;10291793;28;97792;-80
2023/09/30 08:12:12;;;;;;;1.60;0.65;;;;;;;29.51;45.58;101022.34;10291587;28;97277;-80
2023/09/30 08:17:17;;;;;;;1.25;0.80;;;;;;;30.04;43.96;101020.97;10253916;28;96606;-80
2023/09/30 08:22:25;;;;;;;0.82;0.60;;;;;;;29.97;43.16;101019.94;10251432;28;96904;-81
2023/09/30 08:27:30;;;;;;;1.83;0.75;;;;;;;30.67;41.87;101020.38;10250431;28;96705;-81
2023/09/30 08:32:36;;;;;;;1.05;0.77;;;;;;;30.62;41.47;101020.91;10250489;28;96856;-80
2023/09/30 08:37:40;;;;;;;0.73;0.60;;;;;;;31.60;39.71;101028.69;10248687;28;96695;-81
2023/09/30 08:42:43;;;;;;;1.08;0.63;;;;;;;31.48;40.11;101030.09;10250394;28;97286;-81
2023/09/30 08:47:48;;;;;;;0.60;0.55;;;;;;;31.29;39.04;101019.63;10250549;28;97463;-81
2023/09/30 08:52:52;;;;;;;1.35;1.00;;;;;;;31.38;38.96;101029.47;10250571;28;97698;-81
2023/09/30 08:57:58;;;;;;;0.65;0.50;;;;;;;31.53;38.80;101016.81;10249479;28;96756;-80
2023/09/30 09:03:05;;;;;;;0.90;0.57;;;;;;;31.66;38.65;101013.53;10249772;28;97359;-81
2023/09/30 09:08:12;;;;;;;0.60;0.60;;;;;;;31.17;38.95;101023.72;10249610;28;96678;-81
2023/09/30 09:13:16;;;;;;;0.98;0.68;;;;;;;30.85;39.38;101023.78;10250129;28;96738;-81
2023/09/30 09:18:36;;;;;;;0.90;0.60;;;;;;;31.86;38.56;101021.09;10248884;28;96735;-81
2023/09/30 09:23:42;;;;;;;1.17;0.85;;;;;;;31.21;38.79;101022.34;10249946;28;96883;-81
2023/09/30 09:28:48;;;;;;;0.73;0.73;;;;;;;31.37;38.30;101018.75;10247814;28;97210;-80
2023/09/30 09:33:57;;;;;;;1.27;0.73;;;;;;;31.72;37.68;101021.00;10248472;28;96750;-80
2023/09/30 09:39:06;;;;;;;0.95;0.80;;;;;;;31.38;37.82;101009.56;10248532;28;96652;-80
2023/09/30 09:44:12;;;;;;;0.88;0.70;;;;;;;31.74;37.84;101017.03;10248309;28;96684;-80
2023/09/30 09:49:17;;;;;;;0.82;0.73;;;;;;;32.07;36.86;101004.13;10251513;28;96905;-81
2023/09/30 09:54:25;;;;;;;0.70;0.60;;;;;;;32.75;35.63;101009.53;10256521;28;97041;-81
2023/09/30 09:59:29;;;;;;;0.73;0.68;;;;;;;32.96;34.92;100994.19;10255594;28;96783;-81
2023/09/30 10:04:36;;;;;;;0.95;0.73;;;;;;;33.49;34.12;100990.34;10256559;28;97021;-81
2023/09/30 10:09:43;;;;;;;0.70;0.70;;;;;;;33.95;33.46;100982.75;10255186;28;96961;-80
2023/09/30 10:14:47;;;;;;;1.23;0.63;;;;;;;33.31;33.88;100985.25;10255424;28;97420;-81
2023/09/30 10:20:10;;;;;;;0.80;0.63;;;;;;;33.48;33.28;100975.88;10253764;28;97291;-81
2023/09/30 10:25:38;;;;;;;0.52;0.50;;;;;;;33.04;33.44;100975.00;10254261;28;96753;-81
2023/09/30 10:31:09;;;;;;;0.68;0.43;;;;;;;33.04;33.56;100972.28;10254597;28;96818;-81
2023/09/30 10:36:15;;;;;;;0.73;0.55;;;;;;;33.01;33.37;100961.75;10254298;28;96736;-81
2023/09/30 10:41:52;;;;;;;0.40;0.40;;;;;;;33.57;32.92;100967.56;10254036;28;97104;-81
2023/09/30 10:46:56;;;;;;;0.65;0.60;;;;;;;33.41;32.87;100965.91;10254057;28;96797;-81
2023/09/30 10:52:04;;;;;;;0.70;0.45;;;;;;;33.78;32.55;100954.78;10253454;28;96811;-81
2023/09/30 10:57:12;;;;;;;0.50;0.43;;;;;;;34.18;32.10;100950.63;10254350;28;96925;-81
2023/09/30 11:02:21;;;;;;;1.25;0.60;;;;;;;34.11;31.26;100953.28;10252930;28;97960;-81
2023/09/30 11:07:30;;;;;;;0.50;0.50;;;;;;;34.69;31.34;100952.13;10253237;28;97033;-81
2023/09/30 11:12:34;;;;;;;0.95;0.52;;;;;;;34.92;31.10;100943.66;10252136;28;96577;-81
2023/09/30 11:17:37;;;;;;;0.60;0.60;;;;;;;35.30;30.65;100936.72;10252694;28;96824;-81
2023/09/30 11:22:42;;;;;;;0.90;0.52;;;;;;;35.44;30.40;100942.06;10253522;28;96884;-81
2023/09/30 11:27:47;;;;;;;0.50;0.40;;;;;;;35.52;29.85;100932.84;10251905;28;96739;-81
2023/09/30 11:33:00;;;;;;;0.80;0.55;;;;;;;36.08;29.53;100933.44;10251959;28;97422;-81
2023/09/30 11:38:05;;;;;;;1.02;0.57;;;;;;;36.12;28.94;100921.00;10263109;28;96847;-81
2023/09/30 11:43:12;;;;;;;1.05;0.50;;;;;;;36.12;29.15;100918.25;10293144;28;96662;-81
2023/09/30 11:48:21;;;;;;;0.95;0.60;;;;;;;36.85;27.90;100915.25;10293030;28;96573;-81
2023/09/30 11:53:27;;;;;;;0.70;0.70;;;;;;;36.69;28.51;100904.72;10292099;28;96802;-81
2023/09/30 11:58:32;;;;;;;0.80;0.70;;;;;;;35.78;28.99;100899.19;10290460;28;98878;-81
2023/09/30 12:03:39;;;;;;;1.02;0.80;;;;;;;35.83;29.05;100902.16;10290590;28;96657;-81
2023/09/30 12:08:45;;;;;;;0.80;0.60;;;;;;;35.81;29.61;100887.84;10291684;28;96836;-81
2023/09/30 12:13:49;;;;;;;0.70;0.63;;;;;;;36.87;28.03;100890.34;10265218;28;96775;-81
2023/09/30 12:18:52;;;;;;;1.00;0.70;;;;;;;36.52;28.41;100884.31;10250851;28;96706;-81
2023/09/30 12:23:57;;;;;;;0.63;0.50;;;;;;;35.94;28.99;100872.28;10250385;28;96624;-81
2023/09/30 12:29:00;;;;;;;1.30;0.82;;;;;;;36.32;28.78;100870.59;10250325;28;96952;-81
2023/09/30 12:34:05;;;;;;;1.13;0.80;;;;;;;36.44;28.85;100863.44;10250373;28;96628;-81
2023/09/30 12:39:11;;;;;;;1.02;0.80;;;;;;;36.56;28.66;100860.88;10250856;28;96686;-82
2023/09/30 12:44:15;;;;;;;0.98;0.80;;;;;;;36.70;28.65;100849.69;10250233;28;96677;-81
2023/09/30 12:49:18;;;;;;;0.80;0.60;;;;;;;37.09;27.82;100832.22;10250779;28;97669;-81
2023/09/30 12:54:23;;;;;;;1.20;0.77;;;;;;;37.13;28.01;100835.38;10249380;28;96873;-81
2023/09/30 12:59:28;;;;;;;0.80;0.75;;;;;;;37.60;27.38;100835.78;10249282;28;96633;-82
2023/09/30 13:04:32;;;;;;;1.05;0.70;;;;;;;37.78;27.46;100815.78;10250293;28;96920;-81
2023/09/30 13:09:40;;;;;;;1.15;0.70;;;;;;;37.44;27.63;100806.09;10249632;28;96963;-81
2023/09/30 13:14:43;;;;;;;0.57;0.57;;;;;;;37.65;27.42;100803.00;10249622;28;96697;-81
2023/09/30 13:19:48;;;;;;;0.73;0.70;;;;;;;37.70;27.79;100794.91;10249803;28;97266;-82
2023/09/30 13:24:55;;;;;;;1.30;1.10;;;;;;;38.01;26.92;100787.69;10249379;28;96641;-81
2023/09/30 13:29:59;;;;;;;1.05;0.80;;;;;;;38.03;26.85;100775.41;10249139;28;96826;-82
2023/09/30 13:35:05;;;;;;;1.30;1.00;;;;;;;38.53;26.89;100776.19;10248557;28;96698;-81
2023/09/30 13:40:13;;;;;;;1.02;0.90;;;;;;;38.49;27.03;100770.28;10249111;28;97136;-82
2023/09/30 13:45:18;;;;;;;1.30;0.80;;;;;;;37.66;27.82;100768.94;10247128;28;97459;-79
2023/09/30 13:50:21;;;;;;;1.20;0.90;;;;;;;38.22;27.13;100759.78;10248282;28;96821;-79
2023/09/30 13:55:25;;;;;;;1.00;0.88;;;;;;;37.87;27.34;100733.94;10248854;28;96628;-79
2023/09/30 14:00:29;;;;;;;1.05;0.90;;;;;;;37.79;27.63;100738.63;10248027;28;96729;-79
2023/09/30 14:05:32;;;;;;;0.88;0.73;;;;;;;37.80;27.25;100725.69;10247864;28;96746;-79
2023/09/30 14:10:40;;;;;;;1.30;1.00;;;;;;;37.51;28.22;100719.00;10248163;28;97135;-79
2023/09/30 14:15:43;;;;;;;1.17;1.00;;;;;;;37.69;27.50;100716.28;10248140;28;96839;-79
2023/09/30 14:20:47;;;;;;;1.20;1.10;;;;;;;37.68;27.42;100722.84;10247565;28;96728;-79
2023/09/30 14:25:55;;;;;;;1.25;0.90;;;;;;;37.27;28.16;100716.19;10247438;28;96749;-79
2023/09/30 14:30:58;;;;;;;1.30;0.90;;;;;;;37.41;28.42;100701.34;10247249;28;97067;-79
2023/09/30 14:36:05;;;;;;;1.52;0.98;;;;;;;37.49;27.98;100696.41;10250190;28;96692;-78
2023/09/30 14:41:10;;;;;;;1.75;1.17;;;;;;;37.61;27.68;100693.75;10253423;28;97312;-79
2023/09/30 14:46:13;;;;;;;1.42;1.00;;;;;;;37.00;29.01;100693.59;10254751;28;97359;-79
2023/09/30 14:51:21;;;;;;;1.10;1.00;;;;;;;36.93;28.67;100683.72;10253535;28;96618;-78
2023/09/30 14:56:26;;;;;;;1.42;1.30;;;;;;;37.12;28.28;100686.34;10253244;28;96919;-79
2023/09/30 15:01:29;;;;;;;1.15;0.98;;;;;;;36.68;29.03;100680.88;10254059;28;97160;-79
2023/09/30 15:06:34;;;;;;;0.80;0.80;;;;;;;36.75;29.31;100670.69;10253066;28;96862;-79
2023/09/30 15:11:39;;;;;;;1.27;0.80;;;;;;;36.81;29.33;100666.22;10253772;28;96678;-78
2023/09/30 15:16:42;;;;;;;1.52;0.90;;;;;;;36.81;29.24;100666.22;10253056;28;96808;-78
2023/09/30 15:21:46;;;;;;;1.23;0.93;;;;;;;36.13;30.06;100662.31;10285617;28;96676;-79
2023/09/30 15:26:50;;;;;;;1.15;1.05;;;;;;;35.74;30.55;100665.13;10292143;28;97248;-78
2023/09/30 15:31:53;;;;;;;3.83;1.65;;;;;;;35.53;30.97;100658.81;10270702;28;96717;-81
2023/09/30 15:36:57;;;;;;;1.60;1.13;;;;;;;35.51;30.98;100657.34;10252858;28;96632;-81
2023/09/30 15:42:02;;;;;;;2.47;1.42;;;;;;;35.32;30.92;100660.91;10251776;28;97279;-81
2023/09/30 15:47:06;;;;;;;1.80;1.20;;;;;;;35.17;30.96;100663.84;10251570;28;97279;-81
2023/09/30 15:52:09;;;;;;;2.15;1.00;;;;;;;35.12;31.38;100655.41;10255445;28;96704;-81
2023/09/30 15:57:14;;;;;;;1.50;1.00;;;;;;;34.97;31.27;100651.19;10292338;28;96948;-81
2023/09/30 16:02:17;;;;;;;1.58;1.05;;;;;;;34.97;31.00;100652.03;10292139;28;96652;-81
2023/09/30 16:07:21;;;;;;;1.75;1.20;;;;;;;34.87;31.16;100651.53;10292259;28;96933;-81
2023/09/30 16:12:25;;;;;;;1.45;1.30;;;;;;;34.80;31.36;100655.34;10290703;28;96854;-81
2023/09/30 16:17:33;;;;;;;1.10;1.00;;;;;;;34.72;31.75;100650.88;10290110;28;97528;-81
2023/09/30 16:22:36;;;;;;;1.27;1.10;;;;;;;34.48;31.87;100648.72;10291233;28;96691;-80
2023/09/30 16:27:42;;;;;;;1.65;1.10;;;;;;;34.42;31.78;100649.53;10289425;28;96810;-81
2023/09/30 16:32:45;;;;;;;1.67;0.93;;;;;;;34.30;31.87;100645.69;10262547;28;97184;-80
2023/09/30 16:37:49;;;;;;;1.08;0.90;;;;;;;34.23;32.18;100650.28;10250069;28;96612;-81
2023/09/30 16:42:54;;;;;;;2.08;1.35;;;;;;;34.09;32.86;100646.63;10251674;28;96762;-80
2023/09/30 16:47:59;;;;;;;1.35;1.00;;;;;;;33.98;33.72;100644.47;10290373;28;96667;-80
2023/09/30 16:53:06;;;;;;;1.52;1.02;;;;;;;33.92;33.90;100641.72;10291384;28;96981;-80
2023/09/30 16:58:15;;;;;;;2.70;1.45;;;;;;;33.84;34.48;100655.50;10289568;28;96741;-80
2023/09/30 17:03:19;;;;;;;1.50;1.17;;;;;;;33.75;35.07;100653.94;10289315;28;96562;-80
2023/09/30 17:08:25;;;;;;;1.55;1.13;;;;;;;33.66;35.97;100652.44;10288556;28;96641;-81
2023/09/30 17:13:32;;;;;;;1.27;1.10;;;;;;;33.36;36.27;100660.78;10289643;28;97154;-80
2023/09/30 17:18:35;;;;;;;1.48;1.20;;;;;;;33.08;37.31;100665.38;10288746;28;96607;-80
2023/09/30 17:23:40;;;;;;;1.73;1.20;;;;;;;32.80;37.85;100666.28;10289919;28;97371;-80
2023/09/30 17:28:45;;;;;;;1.42;1.33;;;;;;;32.42;38.56;100669.25;10288900;28;96794;-80
2023/09/30 17:33:52;;;;;;;1.77;1.17;;;;;;;32.26;38.89;100674.00;10251670;28;97876;-80
2023/09/30 17:38:55;;;;;;;1.48;1.25;;;;;;;32.10;39.64;100677.78;10248348;28;96706;-80
2023/09/30 17:43:59;;;;;;;2.17;1.42;;;;;;;31.74;41.46;100675.94;10249519;28;96788;-80
2023/09/30 17:49:03;;;;;;;1.50;1.23;;;;;;;31.60;41.23;100671.34;10248050;28;96819;-80
2023/09/30 17:54:09;;;;;;;1.70;1.10;;;;;;;31.39;41.75;100679.38;10249502;28;97237;-80
2023/09/30 17:59:13;;;;;;;1.67;1.27;;;;;;;31.12;42.87;100683.47;10246962;28;96670;-80
2023/09/30 18:04:16;;;;;;;2.05;1.40;;;;;;;30.85;43.34;100693.03;10248006;28;96596;-80
2023/09/30 18:09:20;;;;;;;1.55;1.25;;;;;;;30.60;43.79;100698.72;10249754;28;97841;-80
2023/09/30 18:14:25;;;;;;;1.90;1.50;;;;;;;30.42;44.51;100699.00;10255151;28;97119;-80
2023/09/30 18:19:28;;;;;;;2.05;1.60;;;;;;;30.16;45.22;100703.88;10254739;28;97332;-80
2023/09/30 18:24:33;;;;;;;2.13;1.67;;;;;;;29.96;45.71;100710.69;10254721;28;97097;-80
2023/09/30 18:29:38;;;;;;;2.30;1.73;;;;;;;29.71;46.28;100722.63;10254592;28;96668;-80
2023/09/30 18:34:42;;;;;;;1.98;1.50;;;;;;;29.35;46.84;100721.25;10254314;28;96724;-80
2023/09/30 18:39:45;;;;;;;2.50;1.70;;;;;;;29.35;46.67;100726.69;10253877;28;97229;-80
2023/09/30 18:44:49;;;;;;;;;;;;;;;29.40;46.99;100716.16;10255658;28;97237;-79
2023/09/30 18:49:53;;;;;;;2.28;1.58;;;;;;;29.09;46.64;100726.81;10252884;28;96659;-80
2023/09/30 18:54:56;;;;;;;2.00;1.60;;;;;;;28.86;47.46;100728.44;10254275;28;96985;-80
2023/09/30 19:00:05;;;;;;;2.33;1.80;;;;;;;28.70;47.99;100740.09;10253793;28;97164;-80
2023/09/30 19:05:11;;;;;;;2.70;2.15;;;;;;;28.69;47.93;100741.09;10253528;28;96841;-80
2023/09/30 19:10:16;;;;;;;2.40;1.73;;;;;;;28.55;47.72;100755.25;10252793;28;97275;-80
2023/09/30 19:15:23;;;;;;;2.40;1.80;;;;;;;28.32;48.42;100750.59;10253465;28;96885;-80
2023/09/30 19:20:28;;;;;;;2.00;1.70;;;;;;;28.09;49.18;100758.38;10252974;28;97224;-80
2023/09/30 19:25:32;;;;;;;2.03;1.83;;;;;;;28.03;49.10;100759.88;10253513;28;97944;-80
2023/09/30 19:30:37;;;;;;;2.13;1.70;;;;;;;27.84;49.87;100765.50;10251927;28;96592;-80
2023/09/30 19:35:41;;;;;;;2.92;2.20;;;;;;;27.84;50.10;100775.50;10253081;28;97038;-80
2023/09/30 19:40:45;;;;;;;3.83;2.55;;;;;;;27.62;50.70;100782.19;10251197;28;97021;-80
2023/09/30 19:45:50;;;;;;;2.47;2.28;;;;;;;27.71;50.25;100783.16;10252432;28;96855;-80
2023/09/30 19:50:54;;;;;;;3.65;2.65;;;;;;;27.57;50.53;100792.63;10252765;28;96828;-80
2023/09/30 19:56:03;;;;;;;3.10;2.03;;;;;;;27.43;51.04;100803.16;10251481;28;97109;-79
2023/09/30 20:01:09;;;;;;;3.08;2.25;;;;;;;27.50;50.28;100804.22;10333334;22;98026;-80
2023/09/30 20:06:23;;;;;;;2.92;2.17;;;;;;;27.40;50.74;100811.56;10340794;28;96812;-79
2023/09/30 20:11:30;;;;;;;3.03;2.03;;;;;;;27.20;51.28;100816.25;10414911;28;97002;-80
2023/09/30 20:16:44;;;;;;;3.10;2.10;;;;;;;26.95;51.50;100820.53;10416501;28;97300;-79
2023/09/30 20:21:48;;;;;;;2.90;2.13;;;;;;;26.97;51.90;100826.63;10378590;28;96949;-79
2023/09/30 20:26:54;;;;;;;2.92;1.90;;;;;;;26.92;51.93;100834.31;10400366;28;96807;-79
2023/09/30 20:32:01;;;;;;;3.22;2.15;;;;;;;26.87;52.26;100833.09;10394878;28;97237;-79
2023/09/30 20:37:05;;;;;;;3.45;2.38;;;;;;;26.68;53.09;100838.59;10373423;28;96854;-79
2023/09/30 20:42:10;;;;;;;2.90;2.05;;;;;;;26.60;53.11;100839.34;10385710;28;96653;-79
2023/09/30 20:47:14;;;;;;;;;;;;;;;26.76;53.32;100841.41;10415471;28;96961;-80
2023/09/30 20:52:23;;;;;;;3.08;2.10;;;;;;;26.65;52.60;100850.53;10414346;28;96664;-80
2023/09/30 20:57:26;;;;;;;3.45;2.42;;;;;;;26.57;53.22;100841.47;10384553;27;97283;-80
2023/09/30 21:02:32;;;;;;;3.63;2.30;;;;;;;26.32;54.07;100848.34;10372610;28;96936;-79
2023/09/30 21:07:36;;;;;;;2.58;2.33;;;;;;;26.35;54.18;100850.75;10373381;28;97695;-79
2023/09/30 21:12:40;;;;;;;3.67;2.60;;;;;;;26.55;53.07;100852.44;10372426;28;96928;-79
2023/09/30 21:17:45;;;;;;;3.05;2.60;;;;;;;26.59;52.76;100853.00;10398040;28;97156;-80
2023/09/30 21:22:50;;;;;;;3.92;2.40;;;;;;;26.45;53.43;100846.22;10412883;28;97195;-80
2023/09/30 21:27:54;;;;;;;3.65;2.13;;;;;;;26.02;54.83;100848.56;10413445;28;96885;-80
2023/09/30 21:33:03;;;;;;;2.53;2.00;;;;;;;26.10;54.35;100854.09;10412494;28;97363;-80
2023/09/30 21:38:08;;;;;;;2.90;1.98;;;;;;;26.15;54.15;100856.34;10412910;28;97342;-79
2023/09/30 21:43:11;;;;;;;3.35;2.30;;;;;;;25.69;56.38;100852.56;10412835;28;96664;-80
2023/09/30 21:48:16;;;;;;;2.47;2.13;;;;;;;25.69;56.04;100849.84;10412645;28;97307;-80
2023/09/30 21:53:19;;;;;;;2.78;2.20;;;;;;;25.43;57.24;100850.56;10412446;28;96966;-80
2023/09/30 21:58:25;;;;;;;2.55;2.00;;;;;;;25.52;56.55;100852.41;10375952;27;96926;-80
2023/09/30 22:03:30;;;;;;;3.38;2.20;;;;;;;25.37;56.98;100854.66;10370928;28;97429;-79
2023/09/30 22:08:33;;;;;;;4.00;2.85;;;;;;;25.30;57.59;100853.50;10394981;28;97190;-80
2023/09/30 22:13:36;;;;;;;2.77;2.33;;;;;;;25.18;57.89;100862.69;10411102;28;96756;-80
2023/09/30 22:18:43;;;;;;;3.70;2.80;;;;;;;25.36;57.38;100861.03;10412296;28;97669;-79
2023/09/30 22:23:46;;;;;;;2.65;2.30;;;;;;;25.39;57.38;100858.06;10410971;28;96998;-79
2023/09/30 22:28:52;;;;;;;2.73;2.43;;;;;;;25.29;57.65;100854.50;10411776;28;97012;-80
2023/09/30 22:33:57;;;;;;;3.05;2.47;;;;;;;25.08;58.45;100861.84;10411640;27;96639;-79
2023/09/30 22:39:02;;;;;;;3.05;2.30;;;;;;;24.86;59.07;100861.16;10411443;28;96996;-79
2023/09/30 22:44:05;;;;;;;2.70;2.50;;;;;;;25.01;58.50;100866.06;10410717;28;96910;-79
2023/09/30 22:49:10;;;;;;;3.33;2.63;;;;;;;25.11;58.26;100866.94;10412031;28;96780;-79
2023/09/30 22:54:13;;;;;;;3.15;2.45;;;;;;;25.06;58.41;100862.94;10408675;28;97198;-79
2023/09/30 22:59:16;;;;;;;3.03;2.50;;;;;;;24.69;59.77;100865.34;10397727;28;96883;-80
2023/09/30 23:04:21;;;;;;;3.67;2.43;;;;;;;24.77;59.33;100868.22;10417198;28;97344;-80
2023/09/30 23:09:26;;;;;;;3.78;2.35;;;;;;;24.79;59.11;100867.09;10417864;28;96735;-79
2023/09/30 23:14:29;;;;;;;3.30;2.80;;;;;;;24.67;59.56;100868.16;10417139;28;96900;-80
2023/09/30 23:19:34;;;;;;;3.20;2.53;;;;;;;24.64;59.63;100871.13;10417585;28;96593;-79
2023/09/30 23:24:38;;;;;;;2.65;2.45;;;;;;;24.52;60.07;100874.06;10417331;28;96728;-79